KJAC/JAC METAR and TAF weather

Enter ICAO airport designator
Station Type Date Time Source
KJAC METAR 2021/04/17 02:56 UTC NOAA

KJAC 170256Z AUTO 03010KT 10SM OVC090 01/M07 A3021 RMK AO2 SLP259 T00111072 53015 FZRANO


Station Type Date Time Source
KJAC Decoded METAR 2021/04/17 02:56 UTC NOAA

Jackson, Jackson Hole Airport, WY, United States (KJAC) 43-36N 110-44W
Apr 16, 2021 - 10:56 PM EDT / 2021.04.17 0256 UTC
Wind: from the NNE (030 degrees) at 12 MPH (10 KT):0
Visibility: 10 mile(s):0
Sky conditions: overcast
Temperature: 34.0 F (1.1 C)
Windchill: 24 F (-4 C):1
Dew Point: 19.0 F (-7.2 C)
Relative Humidity: 53%
Pressure (altimeter): 30.21 in. Hg (1023 hPa)
Pressure tendency: 0.04 inches (1.5 hPa) higher than three hours ago
ob: KJAC 170256Z AUTO 03010KT 10SM OVC090 01/M07 A3021 RMK AO2 SLP259 T00111072 53015 FZRANO
cycle: 3

Station Type Date Time Source
KJAC TAF 2021/04/16 18:27 UTC NOAA

TAF KJAC 161722Z 1618/1718 34010G15KT P6SM VCSH BKN050
FM170100 35011KT P6SM SCT050
FM170700 01009KT P6SM SKC

Example: see airport list